createdAt,value
2023-04-24T00:02:12.203Z,98165.94
2023-04-24T00:04:47.306Z,98162.09
2023-04-24T00:07:21.148Z,98158.03
2023-04-24T00:09:52.872Z,98153.34
2023-04-24T00:12:25.319Z,98161.47
2023-04-24T00:14:56.982Z,98160.66
2023-04-24T00:17:31.643Z,98157.00
2023-04-24T00:20:07.868Z,98163.72
2023-04-24T00:22:39.662Z,98152.56
2023-04-24T00:25:11.474Z,98143.38
2023-04-24T00:27:43.197Z,98143.38
2023-04-24T00:30:15.424Z,98135.25
2023-04-24T00:32:47.594Z,98142.56
2023-04-24T00:35:20.988Z,98137.69
2023-04-24T00:37:52.860Z,98135.63
2023-04-24T00:40:24.575Z,98134.03
2023-04-24T00:42:56.782Z,98130.56
2023-04-24T00:45:28.613Z,98119.53
2023-04-24T00:48:01.466Z,98124.44
2023-04-24T00:50:33.683Z,98115.88
2023-04-24T00:53:06.110Z,98114.41
2023-04-24T00:55:38.410Z,98114.84
2023-04-24T00:58:10.418Z,98116.22
2023-04-24T01:00:42.249Z,98117.47
2023-04-24T01:03:15.348Z,98120.13
2023-04-24T01:05:47.512Z,98120.91
2023-04-24T01:08:24.182Z,98125.19
2023-04-24T01:10:58.995Z,98132.94
2023-04-24T01:13:30.723Z,98122.16
2023-04-24T01:16:02.575Z,98124.59
2023-04-24T01:18:34.752Z,98119.69
2023-04-24T01:21:10.008Z,98116.00
2023-04-24T01:23:41.765Z,98117.41
2023-04-24T01:26:15.782Z,98116.41
2023-04-24T01:28:48.712Z,98115.38
2023-04-24T01:31:21.547Z,98113.75
2023-04-24T01:33:57.181Z,98117.00
2023-04-24T01:36:30.341Z,98119.47
2023-04-24T01:39:02.177Z,98114.16
2023-04-24T01:41:34.494Z,98122.09
2023-04-24T01:44:06.267Z,98112.72
2023-04-24T01:46:38.839Z,98105.59
2023-04-24T01:49:10.824Z,98104.78
2023-04-24T01:51:43.881Z,98097.19
2023-04-24T01:54:15.580Z,98097.00
2023-04-24T01:56:47.703Z,98093.91
2023-04-24T01:59:22.688Z,98090.88
2023-04-24T02:01:54.439Z,98085.75
2023-04-24T02:04:26.287Z,98083.28
2023-04-24T02:06:59.241Z,98086.75
2023-04-24T02:09:31.015Z,98089.00
2023-04-24T02:12:02.706Z,98081.88
2023-04-24T02:14:34.573Z,98090.63
2023-04-24T02:17:06.324Z,98086.53
2023-04-24T02:19:38.066Z,98089.78
2023-04-24T02:22:09.755Z,98084.50
2023-04-24T02:24:41.655Z,98086.91
2023-04-24T02:27:14.640Z,98083.44
2023-04-24T02:29:46.614Z,98086.69
2023-04-24T02:32:18.440Z,98088.13
2023-04-24T02:34:50.175Z,98082.81
2023-04-24T02:37:21.802Z,98084.22
2023-04-24T02:39:53.600Z,98083.19
2023-04-24T02:42:25.341Z,98085.84
2023-04-24T02:44:57.018Z,98083.22
2023-04-24T02:47:28.743Z,98084.50
2023-04-24T02:50:00.428Z,98087.34
2023-04-24T02:52:32.185Z,98086.53
2023-04-24T02:55:04.294Z,98080.78
2023-04-24T02:57:36.272Z,98080.59
2023-04-24T03:00:08.545Z,98078.53
2023-04-24T03:02:40.420Z,98082.81
2023-04-24T03:05:13.141Z,98089.72
2023-04-24T03:07:44.923Z,98087.06
2023-04-24T03:10:16.685Z,98083.41
2023-04-24T03:12:48.392Z,98079.53
2023-04-24T03:15:20.205Z,98085.63
2023-04-24T03:17:52.228Z,98079.53
2023-04-24T03:20:25.178Z,98079.53
2023-04-24T03:22:58.204Z,98073.41
2023-04-24T03:25:33.220Z,98078.72
2023-04-24T03:28:05.049Z,98076.28
2023-04-24T03:30:55.470Z,98072.63
2023-04-24T03:33:28.889Z,98070.19
2023-04-24T03:36:06.416Z,98064.09
2023-04-24T03:38:44.913Z,98071.00
2023-04-24T03:41:32.249Z,98073.66
2023-04-24T03:44:10.139Z,98078.13
2023-04-24T03:46:42.391Z,98078.13
2023-04-24T03:49:14.799Z,98074.69
2023-04-24T03:51:49.145Z,98082.63
2023-04-24T03:54:28.109Z,98083.66
2023-04-24T03:57:00.126Z,98082.63
2023-04-24T03:59:33.422Z,98090.81
2023-04-24T04:02:19.508Z,98088.16
2023-04-24T04:04:52.106Z,98087.53
2023-04-24T04:07:23.904Z,98092.03
2023-04-24T04:09:55.992Z,98093.03
2023-04-24T04:12:29.015Z,98092.22
2023-04-24T04:15:01.007Z,98097.53
2023-04-24T04:17:33.014Z,98103.63
2023-04-24T04:20:11.047Z,98104.66
2023-04-24T04:22:44.798Z,98102.63
2023-04-24T04:25:22.041Z,98103.44
2023-04-24T04:27:54.791Z,98105.69
2023-04-24T04:30:26.964Z,98111.75
2023-04-24T04:33:09.301Z,98105.69
2023-04-24T04:35:42.228Z,98114.41
2023-04-24T04:38:16.090Z,98115.03
2023-04-24T04:40:52.303Z,98114.41
2023-04-24T04:43:26.351Z,98114.22
2023-04-24T04:46:01.818Z,98116.03
2023-04-24T04:48:36.446Z,98120.31
2023-04-24T04:51:10.877Z,98123.38
2023-04-24T04:53:43.203Z,98122.13
2023-04-24T04:56:15.032Z,98129.66
2023-04-24T04:58:50.250Z,98121.28
2023-04-24T05:01:24.213Z,98129.03
2023-04-24T05:03:56.514Z,98127.75
2023-04-24T05:06:28.639Z,98131.03
2023-04-24T05:09:00.941Z,98129.00
2023-04-24T05:11:49.056Z,98137.50
2023-04-24T05:14:23.411Z,98144.84
2023-04-24T05:16:55.613Z,98139.16
2023-04-24T05:19:30.072Z,98143.44
2023-04-24T05:22:04.197Z,98151.38
2023-04-24T05:24:37.979Z,98142.81
2023-04-24T05:27:36.203Z,98148.72
2023-04-24T05:30:13.326Z,98150.34
2023-04-24T05:32:45.791Z,98149.31
2023-04-24T05:35:19.769Z,98153.56
2023-04-24T05:37:51.645Z,98154.78
2023-04-24T05:40:23.936Z,98155.53
2023-04-24T05:42:55.648Z,98157.97
2023-04-24T05:45:32.334Z,98153.69
2023-04-24T05:48:04.575Z,98154.13
2023-04-24T05:50:37.873Z,98160.03
2023-04-24T05:53:11.657Z,98159.81
2023-04-24T05:55:43.716Z,98169.00
2023-04-24T05:58:15.662Z,98171.44
2023-04-24T06:00:48.081Z,98173.06
2023-04-24T06:03:20.068Z,98171.66
2023-04-24T06:05:53.968Z,98172.47
2023-04-24T06:08:27.462Z,98174.34
2023-04-24T06:10:59.374Z,98184.31
2023-04-24T06:13:31.380Z,98176.97
2023-04-24T06:16:26.165Z,98181.41
2023-04-24T06:19:05.157Z,98180.78
2023-04-24T06:21:36.996Z,98189.38
2023-04-24T06:24:08.793Z,98184.84
2023-04-24T06:26:42.656Z,98185.69
2023-04-24T06:29:16.525Z,98193.41
2023-04-24T06:31:48.419Z,98198.06
2023-04-24T06:34:20.219Z,98198.47
2023-04-24T06:36:52.164Z,98197.03
2023-04-24T06:39:24.011Z,98206.25
2023-04-24T06:41:56.128Z,98207.66
2023-04-24T06:44:29.277Z,98192.59
2023-04-24T06:47:01.017Z,98200.16
2023-04-24T06:49:32.718Z,98197.50
2023-04-24T06:52:05.009Z,98199.16
2023-04-24T06:54:36.776Z,98201.78
2023-04-24T06:57:09.426Z,98201.34
2023-04-24T06:59:43.478Z,98198.47
2023-04-24T07:02:15.524Z,98204.16
2023-04-24T07:04:48.488Z,98201.47
2023-04-24T07:07:20.288Z,98209.59
2023-04-24T07:09:51.992Z,98214.22
2023-04-24T07:12:23.797Z,98215.63
2023-04-24T07:14:55.605Z,98217.50
2023-04-24T07:17:27.475Z,98213.44
2023-04-24T07:19:59.286Z,98218.06
2023-04-24T07:22:30.987Z,98206.59
2023-04-24T07:25:03.525Z,98224.50
2023-04-24T07:27:38.823Z,98206.91
2023-04-24T07:30:11.106Z,98208.53
2023-04-24T07:32:42.818Z,98215.47
2023-04-24T07:35:17.441Z,98219.19
2023-04-24T07:37:49.454Z,98214.34
2023-04-24T07:40:22.070Z,98221.75
2023-04-24T07:42:53.745Z,98216.28
2023-04-24T07:45:27.213Z,98222.81
2023-04-24T07:47:59.035Z,98229.13
2023-04-24T07:50:30.804Z,98232.41
2023-04-24T07:53:02.714Z,98232.81
2023-04-24T07:55:34.549Z,98234.09
2023-04-24T07:58:06.322Z,98243.28
2023-04-24T08:00:38.090Z,98242.31
2023-04-24T08:03:09.910Z,98241.31
2023-04-24T08:05:42.924Z,98238.47
2023-04-24T08:08:14.795Z,98254.75
2023-04-24T08:10:46.572Z,98242.53
2023-04-24T08:13:18.376Z,98251.50
2023-04-24T08:15:50.388Z,98247.19
2023-04-24T08:18:22.275Z,98246.75
2023-04-24T08:20:54.109Z,98242.72
2023-04-24T08:23:25.980Z,98241.25
2023-04-24T08:25:58.762Z,98238.59
2023-04-24T08:28:30.720Z,98236.75
2023-04-24T08:31:02.428Z,98231.25
2023-04-24T08:33:36.094Z,98230.97
2023-04-24T08:36:08.364Z,98224.22
2023-04-24T08:38:42.670Z,98230.50
2023-04-24T08:41:17.066Z,98231.66
2023-04-24T08:43:49.926Z,98239.63
2023-04-24T08:46:23.587Z,98242.00
2023-04-24T08:48:55.607Z,98234.91
2023-04-24T08:51:27.646Z,98238.81
2023-04-24T08:53:59.475Z,98246.75
2023-04-24T08:56:34.382Z,98247.28
2023-04-24T08:59:07.760Z,98244.19
2023-04-24T09:01:41.101Z,98242.53
2023-04-24T09:04:16.321Z,98245.22
2023-04-24T09:06:50.113Z,98247.81
2023-04-24T09:09:23.584Z,98257.41
2023-04-24T09:11:56.633Z,98254.50
2023-04-24T09:14:29.161Z,98256.47
2023-04-24T09:17:00.908Z,98250.25
2023-04-24T09:19:32.839Z,98257.75
2023-04-24T09:22:08.726Z,98248.06
2023-04-24T09:24:40.680Z,98250.50
2023-04-24T09:27:13.826Z,98252.56
2023-04-24T09:29:56.308Z,98248.81
2023-04-24T09:32:32.807Z,98249.19
2023-04-24T09:35:16.397Z,98245.25
2023-04-24T09:37:49.901Z,98240.78
2023-04-24T09:40:24.073Z,98235.56
2023-04-24T09:43:02.149Z,98241.16
2023-04-24T09:45:38.252Z,98237.28
2023-04-24T09:48:11.159Z,98242.50
2023-04-24T09:50:48.765Z,98227.97
2023-04-24T09:53:25.743Z,98230.81
2023-04-24T09:56:04.141Z,98228.16
2023-04-24T09:58:37.463Z,98219.78
2023-04-24T10:01:09.264Z,98219.72
2023-04-24T10:03:45.713Z,98220.47
2023-04-24T10:06:17.568Z,98220.13
2023-04-24T10:08:51.934Z,98218.97
2023-04-24T10:11:24.317Z,98212.91
2023-04-24T10:13:56.865Z,98212.19
2023-04-24T10:16:29.799Z,98209.53
2023-04-24T10:19:04.235Z,98217.63
2023-04-24T10:21:38.936Z,98220.09
2023-04-24T10:24:18.189Z,98215.19
2023-04-24T10:26:50.770Z,98208.56
2023-04-24T10:29:23.386Z,98205.47
2023-04-24T10:31:55.333Z,98202.22
2023-04-24T10:34:27.511Z,98203.88
2023-04-24T10:36:59.543Z,98191.31
2023-04-24T10:39:34.432Z,98203.19
2023-04-24T10:42:18.837Z,98206.88
2023-04-24T10:44:51.310Z,98206.94
2023-04-24T10:47:23.067Z,98204.22
2023-04-24T10:49:54.955Z,98203.47
2023-04-24T10:52:45.423Z,98193.00
2023-04-24T10:55:17.236Z,98199.53
2023-04-24T10:58:04.647Z,98195.41
2023-04-24T11:00:41.595Z,98186.38
2023-04-24T11:03:31.225Z,98183.44
2023-04-24T11:06:08.009Z,98190.41
2023-04-24T11:08:40.730Z,98183.28
2023-04-24T11:11:17.907Z,98185.94
2023-04-24T11:13:58.224Z,98185.38
2023-04-24T11:16:35.667Z,98172.06
2023-04-24T11:19:12.110Z,98175.53
2023-04-24T11:21:49.975Z,98175.25
2023-04-24T11:24:38.179Z,98160.25
2023-04-24T11:27:15.921Z,98164.81
2023-04-24T11:29:47.574Z,98173.31
2023-04-24T11:32:40.976Z,98173.09
2023-04-24T11:35:22.318Z,98167.97
2023-04-24T11:40:30.068Z,98166.34
2023-04-24T11:43:02.092Z,98172.69
2023-04-24T11:45:33.887Z,98169.03
2023-04-24T11:48:05.607Z,98173.56
2023-04-24T11:50:37.531Z,98174.72
2023-04-24T11:53:09.630Z,98166.06
2023-04-24T11:55:41.606Z,98167.16
2023-04-24T11:58:13.504Z,98159.25
2023-04-24T12:00:46.734Z,98152.66
2023-04-24T12:03:18.986Z,98164.03
2023-04-24T12:05:51.498Z,98165.75
2023-04-24T12:08:29.934Z,98175.53
2023-04-24T12:11:03.325Z,98180.25
2023-04-24T12:13:36.305Z,98185.56
2023-04-24T12:16:08.512Z,98200.50
2023-04-24T12:18:45.264Z,98210.44
2023-04-24T12:21:23.083Z,98216.38
2023-04-24T12:23:57.913Z,98211.63
2023-04-24T12:26:30.183Z,98216.75
2023-04-24T12:29:04.614Z,98208.41
2023-04-24T12:31:36.355Z,98225.75
2023-04-24T12:34:21.848Z,98223.66
2023-04-24T12:36:54.320Z,98215.91
2023-04-24T12:39:27.895Z,98218.66
2023-04-24T12:42:00.966Z,98214.13
2023-04-24T12:44:36.468Z,98213.31
2023-04-24T12:47:08.590Z,98210.44
2023-04-24T12:49:40.344Z,98210.50
2023-04-24T12:52:12.098Z,98211.78
2023-04-24T12:54:43.824Z,98202.91
2023-04-24T12:57:16.261Z,98206.31
2023-04-24T12:59:48.055Z,98211.66
2023-04-24T13:02:19.984Z,98211.53
2023-04-24T13:04:52.757Z,98205.28
2023-04-24T13:07:24.741Z,98204.97
2023-04-24T13:09:58.042Z,98199.75
2023-04-24T13:12:29.842Z,98201.00
2023-04-24T13:15:01.535Z,98199.06
2023-04-24T13:17:34.138Z,98196.13
2023-04-24T13:20:06.493Z,98194.00
2023-04-24T13:22:38.508Z,98190.69
2023-04-24T13:25:11.169Z,98184.91
2023-04-24T13:27:43.119Z,98182.00
2023-04-24T13:30:15.167Z,98174.59
2023-04-24T13:32:47.073Z,98174.69
2023-04-24T13:35:18.862Z,98166.19
2023-04-24T13:37:50.681Z,98173.72
2023-04-24T13:40:22.482Z,98161.19
2023-04-24T13:42:54.257Z,98168.75
2023-04-24T13:45:26.081Z,98166.81
2023-04-24T13:47:58.397Z,98161.59
2023-04-24T13:50:30.202Z,98159.00
2023-04-24T13:53:03.677Z,98160.81
2023-04-24T13:55:35.539Z,98155.56
2023-04-24T13:58:07.671Z,98149.25
2023-04-24T14:00:42.570Z,98159.34
2023-04-24T14:03:14.720Z,98153.44
2023-04-24T14:05:46.554Z,98155.91
2023-04-24T14:08:18.323Z,98160.97
2023-04-24T14:10:51.768Z,98158.44
2023-04-24T14:13:23.635Z,98161.22
2023-04-24T14:15:55.758Z,98164.97
2023-04-24T14:18:27.951Z,98169.28
2023-04-24T14:21:00.317Z,98167.75
2023-04-24T14:23:32.222Z,98170.75
2023-04-24T14:26:04.014Z,98173.69
2023-04-24T14:28:35.821Z,98177.38
2023-04-24T14:31:07.676Z,98177.50
2023-04-24T14:33:39.425Z,98171.69
2023-04-24T14:36:11.373Z,98176.34
2023-04-24T14:38:43.526Z,98168.22
2023-04-24T14:41:18.144Z,98165.16
2023-04-24T14:43:49.749Z,98164.81
2023-04-24T14:46:21.618Z,98164.19
2023-04-24T14:48:53.376Z,98176.50
2023-04-24T14:51:25.309Z,98170.97
2023-04-24T14:53:59.582Z,98161.22
2023-04-24T14:56:31.378Z,98162.84
2023-04-24T14:59:03.711Z,98165.28
2023-04-24T15:01:35.741Z,98169.16
2023-04-24T15:04:07.639Z,98159.63
2023-04-24T15:06:39.611Z,98166.34
2023-04-24T15:09:11.442Z,98163.91
2023-04-24T15:11:43.169Z,98166.25
2023-04-24T15:14:16.053Z,98173.91
2023-04-24T15:16:47.905Z,98159.34
2023-04-24T15:19:19.720Z,98173.66
2023-04-24T15:21:51.434Z,98168.53
2023-04-24T15:24:23.225Z,98156.00
2023-04-24T15:26:57.409Z,98172.19
2023-04-24T15:29:30.395Z,98159.22
2023-04-24T15:32:02.711Z,98166.06
2023-04-24T15:34:35.252Z,98170.25
2023-04-24T15:37:07.191Z,98172.19
2023-04-24T15:39:39.010Z,98169.53
2023-04-24T15:42:10.760Z,98168.41
2023-04-24T15:44:46.062Z,98173.78
2023-04-24T15:47:17.820Z,98180.66
2023-04-24T15:49:49.585Z,98179.13
2023-04-24T15:52:21.530Z,98188.06
2023-04-24T15:54:53.235Z,98185.72
2023-04-24T15:57:25.117Z,98187.03
2023-04-24T15:59:56.861Z,98195.84
2023-04-24T16:02:30.651Z,98201.63
2023-04-24T16:05:02.595Z,98211.59
2023-04-24T16:07:34.738Z,98204.69
2023-04-24T16:10:06.981Z,98217.44
2023-04-24T16:12:38.936Z,98220.47
2023-04-24T16:15:31.241Z,98224.75
2023-04-24T16:18:05.738Z,98221.38
2023-04-24T16:20:40.854Z,98221.47
2023-04-24T16:23:12.924Z,98213.38
2023-04-24T16:25:44.725Z,98214.28
2023-04-24T16:28:18.502Z,98212.66
2023-04-24T16:30:50.259Z,98209.88
2023-04-24T16:33:22.029Z,98214.75
2023-04-24T16:35:53.914Z,98210.47
2023-04-24T16:38:26.565Z,98215.66
2023-04-24T16:40:58.376Z,98217.50
2023-04-24T16:43:30.138Z,98220.59
2023-04-24T16:46:02.744Z,98219.41
2023-04-24T16:48:35.070Z,98228.09
2023-04-24T16:51:06.888Z,98215.59
2023-04-24T16:53:38.540Z,98227.97
2023-04-24T16:56:10.300Z,98241.50
2023-04-24T16:58:42.063Z,98243.88
2023-04-24T17:01:13.969Z,98254.84
2023-04-24T17:03:46.709Z,98250.06
2023-04-24T17:06:18.728Z,98256.84
2023-04-24T17:08:50.775Z,98243.88
2023-04-24T17:11:23.117Z,98247.22
2023-04-24T17:13:54.916Z,98265.28
2023-04-24T17:16:26.830Z,98260.44
2023-04-24T17:18:58.870Z,98264.41
2023-04-24T17:21:31.677Z,98264.06
2023-04-24T17:24:03.647Z,98263.66
2023-04-24T17:26:35.695Z,98262.50
2023-04-24T17:29:07.459Z,98261.31
2023-04-24T17:31:39.183Z,98268.03
2023-04-24T17:34:11.098Z,98274.00
2023-04-24T17:36:42.839Z,98272.59
2023-04-24T17:39:14.587Z,98280.19
2023-04-24T17:41:46.409Z,98279.22
2023-04-24T17:44:18.083Z,98277.06
2023-04-24T17:46:49.820Z,98279.97
2023-04-24T17:49:21.481Z,98286.75
2023-04-24T17:51:53.348Z,98283.28
2023-04-24T17:54:25.422Z,98298.84
2023-04-24T17:56:57.258Z,98293.91
2023-04-24T17:59:29.051Z,98309.53
2023-04-24T18:02:03.016Z,98296.47
2023-04-24T18:04:35.647Z,98308.78
2023-04-24T18:07:08.519Z,98314.69
2023-04-24T18:09:41.351Z,98310.88
2023-04-24T18:12:13.076Z,98318.47
2023-04-24T18:14:44.837Z,98327.06
2023-04-24T18:17:16.549Z,98324.00
2023-04-24T18:19:48.226Z,98338.53
2023-04-24T18:22:20.035Z,98335.28
2023-04-24T18:24:51.804Z,98339.59
2023-04-24T18:27:25.301Z,98338.78
2023-04-24T18:29:57.774Z,98343.06
2023-04-24T18:32:29.679Z,98341.28
2023-04-24T18:35:01.633Z,98352.28
2023-04-24T18:37:33.680Z,98358.69
2023-04-24T18:40:06.084Z,98358.44
2023-04-24T18:42:37.955Z,98362.75
2023-04-24T18:45:11.848Z,98368.09
2023-04-24T18:47:45.791Z,98376.28
2023-04-24T18:50:20.062Z,98374.25
2023-04-24T18:52:51.785Z,98376.13
2023-04-24T18:55:23.502Z,98382.44
2023-04-24T18:57:55.212Z,98383.84
2023-04-24T19:00:30.565Z,98394.53
2023-04-24T19:03:03.131Z,98399.84
2023-04-24T19:05:35.112Z,98397.19
2023-04-24T19:08:07.091Z,98403.09
2023-04-24T19:10:38.851Z,98411.06
2023-04-24T19:13:10.683Z,98412.88
2023-04-24T19:15:42.876Z,98411.28
2023-04-24T19:18:14.612Z,98411.25
2023-04-24T19:20:46.629Z,98410.84
2023-04-24T19:23:18.490Z,98419.84
2023-04-24T19:25:50.355Z,98419.84
2023-04-24T19:28:22.300Z,98430.22
2023-04-24T19:30:58.413Z,98426.34
2023-04-24T19:33:30.480Z,98429.00
2023-04-24T19:36:02.594Z,98425.75
2023-04-24T19:38:34.613Z,98434.13
2023-04-24T19:41:06.495Z,98433.50
2023-04-24T19:43:38.955Z,98426.19
2023-04-24T19:46:10.964Z,98441.06
2023-04-24T19:48:42.852Z,98434.13
2023-04-24T19:51:14.641Z,98432.91
2023-04-24T19:53:46.396Z,98431.72
2023-04-24T19:56:18.093Z,98437.81
2023-04-24T19:58:50.189Z,98431.69
2023-04-24T20:01:22.103Z,98431.91
2023-04-24T20:03:54.062Z,98428.25
2023-04-24T20:06:25.977Z,98438.22
2023-04-24T20:08:57.802Z,98431.28
2023-04-24T20:11:29.464Z,98426.00
2023-04-24T20:14:04.022Z,98433.31
2023-04-24T20:16:35.760Z,98428.41
2023-04-24T20:19:08.145Z,98431.28
2023-04-24T20:21:39.977Z,98428.41
2023-04-24T20:24:11.844Z,98436.97
2023-04-24T20:26:43.608Z,98444.91
2023-04-24T20:29:15.493Z,98447.13
2023-04-24T20:31:47.290Z,98456.72
2023-04-24T20:34:19.385Z,98458.94
2023-04-24T20:36:51.140Z,98451.63
2023-04-24T20:39:23.188Z,98454.06
2023-04-24T20:41:54.869Z,98443.84
2023-04-24T20:44:26.687Z,98447.91
2023-04-24T20:46:58.430Z,98442.41
2023-04-24T20:49:30.213Z,98450.78
2023-04-24T20:52:02.013Z,98449.53
2023-04-24T20:54:34.089Z,98449.53
2023-04-24T20:57:05.946Z,98451.13
2023-04-24T20:59:38.798Z,98451.13
2023-04-24T21:02:10.586Z,98450.75
2023-04-24T21:04:42.352Z,98448.50
2023-04-24T21:07:15.316Z,98447.25
2023-04-24T21:09:47.153Z,98455.78
2023-04-24T21:12:18.884Z,98460.72
2023-04-24T21:14:51.816Z,98460.28
2023-04-24T21:17:23.648Z,98463.75
2023-04-24T21:19:56.604Z,98462.28
2023-04-24T21:22:28.329Z,98465.56
2023-04-24T21:25:00.031Z,98468.41
2023-04-24T21:27:31.833Z,98461.63
2023-04-24T21:30:06.004Z,98477.50
2023-04-24T21:32:39.222Z,98464.13
2023-04-24T21:35:11.429Z,98473.88
2023-04-24T21:37:43.238Z,98472.88
2023-04-24T21:40:16.024Z,98478.09
2023-04-24T21:42:48.008Z,98476.25
2023-04-24T21:45:20.222Z,98475.19
2023-04-24T21:47:52.135Z,98476.63
2023-04-24T21:50:23.910Z,98478.81
2023-04-24T21:52:55.785Z,98477.22
2023-04-24T21:55:27.704Z,98476.16
2023-04-24T21:57:59.611Z,98478.56
2023-04-24T22:00:31.508Z,98487.72
2023-04-24T22:03:04.390Z,98476.50
2023-04-24T22:05:36.970Z,98474.03
2023-04-24T22:08:09.737Z,98478.91
2023-04-24T22:10:41.460Z,98469.94
2023-04-24T22:13:13.203Z,98469.31
2023-04-24T22:15:45.193Z,98479.66
2023-04-24T22:18:18.895Z,98470.66
2023-04-24T22:20:50.733Z,98478.78
2023-04-24T22:23:22.472Z,98466.34
2023-04-24T22:25:54.257Z,98463.28
2023-04-24T22:28:26.385Z,98470.03
2023-04-24T22:30:58.426Z,98470.03
2023-04-24T22:33:33.067Z,98479.53
2023-04-24T22:36:04.991Z,98473.97
2023-04-24T22:38:36.779Z,98477.66
2023-04-24T22:41:08.593Z,98483.38
2023-04-24T22:43:40.329Z,98477.91
2023-04-24T22:46:12.015Z,98493.34
2023-04-24T22:48:44.308Z,98487.00
2023-04-24T22:51:18.199Z,98496.94
2023-04-24T22:53:50.229Z,98493.69
2023-04-24T22:56:22.197Z,98504.63
2023-04-24T22:58:53.895Z,98512.31
2023-04-24T23:01:29.161Z,98509.44
2023-04-24T23:04:01.400Z,98504.91
2023-04-24T23:06:33.670Z,98507.94
2023-04-24T23:09:05.346Z,98503.41
2023-04-24T23:11:37.253Z,98513.91
2023-04-24T23:14:09.129Z,98508.94
2023-04-24T23:16:42.773Z,98509.69
2023-04-24T23:19:17.368Z,98506.63
2023-04-24T23:21:50.132Z,98505.78
2023-04-24T23:24:22.211Z,98515.91
2023-04-24T23:26:53.940Z,98503.72
2023-04-24T23:29:26.283Z,98502.47
2023-04-24T23:31:58.420Z,98506.28
2023-04-24T23:34:30.241Z,98499.38
2023-04-24T23:37:01.933Z,98496.44
2023-04-24T23:39:34.402Z,98498.44
2023-04-24T23:42:07.864Z,98500.28
2023-04-24T23:44:39.610Z,98496.72
2023-04-24T23:47:11.371Z,98495.75
2023-04-24T23:49:43.105Z,98496.13
2023-04-24T23:52:14.891Z,98495.63
2023-04-24T23:54:47.825Z,98491.56
2023-04-24T23:57:19.714Z,98502.66
2023-04-24T23:59:52.378Z,98492.91
